createdAt,value
2019-04-22T00:02:03.880Z,72.20
2019-04-22T00:04:49.746Z,71.10
2019-04-22T00:07:28.939Z,71.10
2019-04-22T00:10:09.554Z,72.70
2019-04-22T00:15:08.105Z,72.90
2019-04-22T00:17:55.156Z,74.10
2019-04-22T00:20:14.688Z,73.90
2019-04-22T00:22:47.983Z,73.50
2019-04-22T00:25:19.537Z,73.40
2019-04-22T00:27:57.490Z,73.60
2019-04-22T00:30:22.152Z,73.40
2019-04-22T00:33:03.353Z,74.20
2019-04-22T00:35:38.216Z,75.30
2019-04-22T01:03:44.132Z,78.80
2019-04-22T01:06:14.812Z,80.00
2019-04-22T01:08:48.107Z,80.80
2019-04-22T01:11:21.375Z,82.30
2019-04-22T01:13:44.310Z,83.50
2019-04-22T01:16:22.673Z,84.60
2019-04-22T01:18:55.529Z,85.10
2019-04-22T01:21:28.994Z,88.30
2019-04-22T01:23:57.542Z,90.10
2019-04-22T01:26:31.278Z,91.00
2019-04-22T01:28:58.887Z,91.40
2019-04-22T01:31:22.240Z,92.60
2019-04-22T01:34:08.378Z,93.70
2019-04-22T01:36:45.717Z,94.20
2019-04-22T01:39:37.535Z,94.70
2019-04-22T01:42:05.572Z,95.50
2019-04-22T01:44:29.698Z,95.60
2019-04-22T01:47:02.287Z,95.60
2019-04-22T01:49:33.540Z,95.90
2019-04-22T01:52:04.755Z,96.60
2019-04-22T01:54:41.505Z,97.20
2019-04-22T01:57:04.900Z,98.10
2019-04-22T01:59:35.558Z,98.90
2019-04-22T02:02:17.601Z,99.20
2019-04-22T02:05:04.864Z,99.30
2019-04-22T02:07:26.289Z,99.90
2019-04-22T02:10:11.197Z,99.90
2019-04-22T02:12:29.931Z,99.90
2019-04-22T02:14:58.082Z,99.90
2019-04-22T02:17:39.663Z,99.90
2019-04-22T02:20:09.303Z,99.90
2019-04-22T02:23:30.303Z,99.90
2019-04-22T02:25:51.642Z,99.90
2019-04-22T02:28:26.030Z,99.90
2019-04-22T02:39:15.312Z,99.90
2019-04-22T02:44:13.493Z,99.90
2019-04-22T02:51:49.147Z,99.90
2019-04-22T02:54:44.655Z,99.90
2019-04-22T02:57:00.821Z,99.90
2019-04-22T02:59:36.974Z,99.90
2019-04-22T03:02:19.653Z,99.90
2019-04-22T03:04:28.411Z,99.90
2019-04-22T03:07:03.541Z,99.90
2019-04-22T03:17:25.504Z,99.90
2019-04-22T03:22:24.080Z,99.90
2019-04-22T03:25:32.736Z,99.90
2019-04-22T03:27:29.712Z,99.90
2019-04-22T03:35:37.532Z,99.90
2019-04-22T03:37:52.562Z,99.90
2019-04-22T03:45:28.445Z,99.90
2019-04-22T03:55:49.057Z,99.90
2019-04-22T03:58:01.434Z,99.90
2019-04-22T04:00:47.885Z,99.90
2019-04-22T04:06:10.408Z,99.90
2019-04-22T04:10:55.661Z,99.90
2019-04-22T04:13:34.331Z,99.90
2019-04-22T04:16:07.791Z,99.90
2019-04-22T04:21:27.332Z,99.90
2019-04-22T04:24:07.469Z,99.90
2019-04-22T04:26:39.397Z,99.90
2019-04-22T04:29:02.446Z,99.90
2019-04-22T04:31:43.309Z,99.90
2019-04-22T04:34:06.313Z,99.90
2019-04-22T04:36:34.138Z,99.90
2019-04-22T04:41:42.086Z,99.90
2019-04-22T04:44:35.281Z,99.90
2019-04-22T04:46:53.900Z,99.90
2019-04-22T04:49:18.756Z,99.90
2019-04-22T04:56:50.397Z,99.90
2019-04-22T04:59:45.715Z,99.90
2019-04-22T05:04:37.260Z,99.90
2019-04-22T05:09:32.667Z,99.90
2019-04-22T05:14:44.558Z,99.90
2019-04-22T05:17:16.415Z,99.90
2019-04-22T05:19:49.923Z,99.90
2019-04-22T05:22:18.966Z,99.90
2019-04-22T05:25:08.258Z,99.90
2019-04-22T05:27:32.676Z,99.90
2019-04-22T05:30:12.610Z,99.90
2019-04-22T05:32:24.687Z,98.50
2019-04-22T05:34:57.574Z,97.00
2019-04-22T05:37:27.620Z,97.90
2019-04-22T05:40:10.562Z,98.40
2019-04-22T05:42:29.406Z,98.30
2019-04-22T05:45:10.218Z,97.80
2019-04-22T05:47:38.947Z,96.90
2019-04-22T05:50:09.418Z,97.50
2019-04-22T05:52:51.558Z,97.40
2019-04-22T05:55:33.222Z,97.10
2019-04-22T05:57:59.719Z,96.30
2019-04-22T06:03:07.213Z,95.10
2019-04-22T06:05:35.907Z,94.10
2019-04-22T06:08:11.634Z,94.30
2019-04-22T06:10:45.378Z,93.10
2019-04-22T06:13:16.370Z,91.50
2019-04-22T06:15:49.666Z,88.90
2019-04-22T06:18:22.834Z,83.70
2019-04-22T06:21:07.119Z,79.40
2019-04-22T06:23:34.539Z,72.30
2019-04-22T06:26:09.940Z,67.80
2019-04-22T06:31:14.111Z,66.70
2019-04-22T06:33:45.905Z,64.30
2019-04-22T06:36:15.786Z,62.80
2019-04-22T06:39:05.251Z,63.80
2019-04-22T06:41:21.216Z,64.20
2019-04-22T06:43:54.424Z,63.10
2019-04-22T06:48:56.292Z,64.30
2019-04-22T06:51:32.927Z,63.50
2019-04-22T06:54:01.776Z,65.30
2019-04-22T06:56:35.643Z,65.50
2019-04-22T06:59:16.852Z,64.70
2019-04-22T07:04:14.455Z,61.10
2019-04-22T07:09:28.767Z,59.10
2019-04-22T07:12:02.242Z,59.10
2019-04-22T07:14:28.331Z,57.90
2019-04-22T07:17:01.863Z,57.10
2019-04-22T07:19:40.603Z,56.40
2019-04-22T07:22:19.881Z,54.40
2019-04-22T07:24:50.366Z,52.50
2019-04-22T07:29:55.746Z,57.40
2019-04-22T07:35:03.738Z,54.30
2019-04-22T07:40:02.069Z,53.00
2019-04-22T07:42:49.407Z,53.60
2019-04-22T07:45:25.110Z,54.80
2019-04-22T07:48:03.047Z,51.00
2019-04-22T07:50:44.462Z,51.00
2019-04-22T07:53:02.920Z,48.60
2019-04-22T07:55:36.893Z,46.80
2019-04-22T07:58:16.988Z,49.70
2019-04-22T08:00:40.165Z,53.00
2019-04-22T08:03:18.465Z,54.40
2019-04-22T08:05:51.902Z,55.90
2019-04-22T08:10:56.794Z,55.50
2019-04-22T08:13:25.271Z,54.80
2019-04-22T08:15:58.752Z,55.70
2019-04-22T08:18:35.901Z,54.60
2019-04-22T08:21:06.363Z,53.00
2019-04-22T08:23:43.554Z,53.30
2019-04-22T08:26:13.038Z,53.80
2019-04-22T08:31:23.366Z,51.90
2019-04-22T08:33:56.525Z,48.30
2019-04-22T08:36:25.622Z,48.30
2019-04-22T08:39:04.504Z,45.20
2019-04-22T08:41:33.112Z,44.80
2019-04-22T08:44:10.871Z,44.50
2019-04-22T08:46:40.103Z,42.50
2019-04-22T08:49:17.768Z,40.70
2019-04-22T08:51:49.327Z,40.20
2019-04-22T08:54:24.312Z,39.30
2019-04-22T08:56:58.279Z,38.30
2019-04-22T08:59:28.198Z,37.90
2019-04-22T09:02:10.128Z,36.60
2019-04-22T09:04:37.067Z,36.40
2019-04-22T09:09:45.802Z,37.40
2019-04-22T09:14:47.602Z,38.60
2019-04-22T09:17:22.758Z,38.60
2019-04-22T09:19:55.915Z,39.40
2019-04-22T09:22:26.387Z,40.40
2019-04-22T09:24:56.010Z,39.40
2019-04-22T09:27:38.523Z,39.10
2019-04-22T09:30:10.479Z,39.60
2019-04-22T09:35:10.159Z,39.30
2019-04-22T09:37:48.608Z,39.40
2019-04-22T09:40:41.339Z,39.50
2019-04-22T09:42:50.367Z,38.80
2019-04-22T09:45:21.730Z,38.70
2019-04-22T09:48:04.849Z,37.40
2019-04-22T09:50:40.541Z,36.50
2019-04-22T09:53:03.117Z,36.80
2019-04-22T09:55:34.596Z,37.10
2019-04-22T09:58:09.375Z,36.30
2019-04-22T10:00:46.163Z,36.30
2019-04-22T10:03:13.684Z,36.30
2019-04-22T10:05:51.852Z,36.60
2019-04-22T10:08:24.415Z,37.70
2019-04-22T10:11:00.801Z,37.60
2019-04-22T10:13:27.565Z,35.50
2019-04-22T10:16:03.109Z,35.60
2019-04-22T10:18:32.448Z,36.50
2019-04-22T10:21:00.956Z,34.70
2019-04-22T10:23:33.046Z,32.10
2019-04-22T10:26:14.917Z,31.20
2019-04-22T10:28:44.568Z,30.00
2019-04-22T10:31:19.216Z,32.00
2019-04-22T10:33:38.267Z,30.60
2019-04-22T10:35:53.391Z,30.50
2019-04-22T10:38:26.296Z,29.50
2019-04-22T10:40:58.720Z,30.70
2019-04-22T10:43:31.000Z,29.60
2019-04-22T10:46:02.109Z,28.80
2019-04-22T10:48:34.509Z,27.20
2019-04-22T10:51:06.521Z,26.50
2019-04-22T10:53:37.581Z,27.10
2019-04-22T10:56:09.320Z,27.50
2019-04-22T10:58:40.519Z,27.20
2019-04-22T11:01:11.603Z,28.30
2019-04-22T11:03:43.339Z,27.90
2019-04-22T11:06:14.953Z,28.80
2019-04-22T11:08:50.859Z,28.10
2019-04-22T11:11:32.570Z,28.80
2019-04-22T11:13:53.758Z,28.70
2019-04-22T11:16:25.693Z,29.90
2019-04-22T11:18:59.347Z,29.40
2019-04-22T11:21:31.707Z,29.20
2019-04-22T11:24:03.080Z,28.80
2019-04-22T11:26:34.697Z,28.30
2019-04-22T11:29:05.676Z,27.20
2019-04-22T11:31:38.710Z,27.30
2019-04-22T11:34:11.029Z,29.20
2019-04-22T11:36:43.001Z,28.30
2019-04-22T11:39:16.855Z,27.30
2019-04-22T11:41:47.497Z,27.30
2019-04-22T11:44:19.206Z,27.50
2019-04-22T11:46:51.535Z,28.80
2019-04-22T11:49:23.698Z,28.80
2019-04-22T11:51:55.994Z,29.10
2019-04-22T11:54:28.465Z,28.80
2019-04-22T11:57:08.714Z,27.50
2019-04-22T11:59:42.986Z,27.70
2019-04-22T12:02:17.571Z,26.90
2019-04-22T12:04:49.759Z,28.90
2019-04-22T12:07:21.320Z,28.40
2019-04-22T12:09:55.605Z,29.40
2019-04-22T12:12:27.835Z,29.70
2019-04-22T12:14:58.693Z,29.20
2019-04-22T12:17:30.272Z,29.50
2019-04-22T12:20:04.764Z,28.80
2019-04-22T12:22:35.679Z,28.70
2019-04-22T12:25:10.559Z,27.90
2019-04-22T12:27:43.109Z,28.90
2019-04-22T12:30:15.100Z,28.20
2019-04-22T12:32:46.054Z,28.80
2019-04-22T12:35:19.665Z,29.50
2019-04-22T12:37:55.675Z,29.60
2019-04-22T12:40:34.123Z,30.10
2019-04-22T12:42:57.672Z,29.50
2019-04-22T12:45:30.064Z,30.50
2019-04-22T12:48:02.145Z,28.30
2019-04-22T12:50:37.216Z,27.70
2019-04-22T12:53:10.835Z,29.00
2019-04-22T12:55:39.680Z,29.90
2019-04-22T12:58:11.733Z,29.40
2019-04-22T13:00:42.837Z,29.00
2019-04-22T13:03:13.889Z,29.40
2019-04-22T13:05:45.173Z,29.00
2019-04-22T13:08:16.117Z,29.70
2019-04-22T13:10:55.219Z,29.10
2019-04-22T13:13:20.794Z,28.90
2019-04-22T13:15:53.065Z,28.90
2019-04-22T13:18:31.674Z,27.50
2019-04-22T13:20:56.778Z,28.50
2019-04-22T13:23:27.593Z,27.60
2019-04-22T13:25:59.027Z,27.00
2019-04-22T13:28:31.364Z,26.60
2019-04-22T13:31:03.756Z,26.50
2019-04-22T13:33:35.124Z,26.50
2019-04-22T13:36:05.993Z,27.70
2019-04-22T13:38:38.637Z,29.30
2019-04-22T13:41:21.459Z,28.70
2019-04-22T13:43:44.718Z,28.50
2019-04-22T13:46:16.781Z,27.90
2019-04-22T13:49:14.748Z,27.80
2019-04-22T13:56:49.180Z,30.00
2019-04-22T13:59:08.726Z,29.80
2019-04-22T14:01:58.648Z,30.30
2019-04-22T14:04:34.666Z,29.80
2019-04-22T14:07:07.158Z,29.50
2019-04-22T14:09:38.247Z,30.90
2019-04-22T14:12:11.476Z,29.80
2019-04-22T14:14:44.003Z,28.80
2019-04-22T14:17:14.394Z,28.70
2019-04-22T14:19:44.853Z,27.60
2019-04-22T14:22:15.976Z,27.20
2019-04-22T14:24:46.992Z,27.90
2019-04-22T14:27:31.758Z,28.50
2019-04-22T14:29:51.519Z,30.00
2019-04-22T14:32:27.535Z,30.60
2019-04-22T14:34:55.281Z,31.30
2019-04-22T14:37:26.055Z,31.40
2019-04-22T14:39:57.804Z,32.30
2019-04-22T14:42:51.725Z,31.80
2019-04-22T14:48:01.145Z,31.80
2019-04-22T14:50:31.921Z,32.70
2019-04-22T14:52:58.325Z,33.10
2019-04-22T14:55:18.965Z,32.60
2019-04-22T14:57:46.930Z,34.30
2019-04-22T15:00:19.844Z,34.50
2019-04-22T15:02:51.882Z,34.20
2019-04-22T15:05:23.915Z,33.90
2019-04-22T15:07:55.101Z,34.60
2019-04-22T15:10:26.210Z,36.30
2019-04-22T15:12:59.128Z,35.30
2019-04-22T15:15:48.569Z,35.00
2019-04-22T15:18:42.071Z,35.70
2019-04-22T15:21:16.584Z,35.50
2019-04-22T15:23:48.671Z,35.40
2019-04-22T15:26:20.339Z,36.30
2019-04-22T15:28:51.511Z,35.80
2019-04-22T15:31:23.641Z,35.90
2019-04-22T15:33:56.341Z,35.70
2019-04-22T15:36:28.273Z,35.00
2019-04-22T15:38:59.652Z,34.00
2019-04-22T15:41:30.613Z,32.70
2019-04-22T15:44:01.857Z,31.80
2019-04-22T15:46:33.297Z,32.00
2019-04-22T15:49:04.343Z,32.50
2019-04-22T15:51:36.331Z,34.50
2019-04-22T15:54:07.713Z,34.10
2019-04-22T15:56:39.075Z,35.00
2019-04-22T15:59:34.597Z,34.60
2019-04-22T16:01:44.739Z,33.90
2019-04-22T16:04:16.973Z,33.90
2019-04-22T16:06:49.283Z,33.50
2019-04-22T16:09:20.703Z,33.80
2019-04-22T16:11:51.942Z,34.00
2019-04-22T16:14:30.899Z,33.10
2019-04-22T16:16:56.754Z,34.20
2019-04-22T16:19:28.097Z,34.20
2019-04-22T16:22:05.011Z,34.30
2019-04-22T16:24:50.127Z,33.60
2019-04-22T16:27:24.680Z,33.70
2019-04-22T16:29:57.052Z,34.40
2019-04-22T16:32:29.863Z,33.80
2019-04-22T16:35:00.996Z,33.00
2019-04-22T16:37:32.789Z,31.50
2019-04-22T16:40:05.066Z,32.10
2019-04-22T16:42:43.785Z,30.40
2019-04-22T16:45:09.448Z,29.90
2019-04-22T16:47:40.175Z,29.90
2019-04-22T16:50:11.264Z,28.00
2019-04-22T16:52:42.181Z,28.40
2019-04-22T16:55:13.017Z,29.00
2019-04-22T16:57:44.116Z,29.30
2019-04-22T17:00:16.627Z,32.20
2019-04-22T17:03:18.500Z,31.90
2019-04-22T17:06:23.741Z,30.90
2019-04-22T17:08:55.157Z,30.70
2019-04-22T17:11:27.518Z,32.50
2019-04-22T17:13:59.345Z,33.30
2019-04-22T17:16:32.327Z,34.90
2019-04-22T17:19:04.533Z,37.00
2019-04-22T17:21:37.365Z,37.60
2019-04-22T17:24:09.677Z,38.20
2019-04-22T17:26:42.190Z,39.10
2019-04-22T17:29:14.500Z,38.70
2019-04-22T17:31:52.197Z,39.10
2019-04-22T17:34:18.392Z,39.20
2019-04-22T17:36:49.189Z,39.80
2019-04-22T17:39:31.682Z,40.60
2019-04-22T17:42:11.429Z,40.70
2019-04-22T17:44:48.715Z,41.40
2019-04-22T17:47:23.666Z,41.60
2019-04-22T17:50:10.468Z,42.30
2019-04-22T17:52:36.445Z,43.10
2019-04-22T17:55:04.571Z,44.30
2019-04-22T17:57:35.692Z,44.50
2019-04-22T18:00:11.198Z,45.70
2019-04-22T18:02:43.327Z,46.10
2019-04-22T18:05:03.489Z,46.60
2019-04-22T18:07:49.339Z,46.40
2019-04-22T18:10:33.039Z,47.20
2019-04-22T18:13:01.812Z,48.30
2019-04-22T18:15:35.261Z,47.60
2019-04-22T18:18:05.308Z,48.40
2019-04-22T18:20:32.286Z,49.00
2019-04-22T18:22:56.992Z,49.40
2019-04-22T18:25:41.714Z,49.10
2019-04-22T18:28:17.334Z,50.40
2019-04-22T18:30:39.697Z,50.80
2019-04-22T18:33:22.935Z,51.30
2019-04-22T18:35:46.904Z,51.50
2019-04-22T18:38:32.418Z,51.60
2019-04-22T18:40:53.140Z,52.60
2019-04-22T18:43:28.814Z,52.20
2019-04-22T18:46:06.540Z,52.20
2019-04-22T18:48:32.060Z,51.50
2019-04-22T18:51:20.166Z,51.80
2019-04-22T18:54:09.649Z,52.10
2019-04-22T18:56:37.650Z,51.60
2019-04-22T18:59:05.082Z,52.90
2019-04-22T19:01:24.120Z,52.90
2019-04-22T19:04:04.704Z,54.30
2019-04-22T19:06:50.536Z,54.70
2019-04-22T19:09:27.660Z,55.70
2019-04-22T19:12:08.023Z,56.50
2019-04-22T19:14:25.337Z,56.90
2019-04-22T19:17:07.617Z,56.70
2019-04-22T19:19:38.040Z,56.80
2019-04-22T19:22:02.215Z,56.70
2019-04-22T19:24:34.381Z,56.70
2019-04-22T19:27:09.591Z,57.90
2019-04-22T19:29:46.840Z,58.00
2019-04-22T19:32:18.482Z,58.20
2019-04-22T19:34:46.392Z,58.10
2019-04-22T19:37:22.613Z,58.30
2019-04-22T19:40:00.898Z,57.90
2019-04-22T19:42:30.742Z,59.00
2019-04-22T19:44:56.730Z,58.80
2019-04-22T19:47:30.318Z,59.50
2019-04-22T19:50:19.279Z,59.10
2019-04-22T19:52:35.800Z,59.10
2019-04-22T19:55:11.017Z,59.50
2019-04-22T19:57:40.299Z,60.70
2019-04-22T20:00:18.518Z,61.40
2019-04-22T20:03:20.246Z,60.70
2019-04-22T20:05:56.212Z,61.60
2019-04-22T20:08:31.157Z,62.20
2019-04-22T20:11:03.656Z,59.40
2019-04-22T20:13:37.093Z,59.20
2019-04-22T20:15:58.286Z,59.50
2019-04-22T20:18:48.675Z,60.20
2019-04-22T20:21:17.999Z,61.50
2019-04-22T20:23:39.247Z,61.60
2019-04-22T20:26:15.234Z,60.40
2019-04-22T20:28:53.730Z,59.10
2019-04-22T20:31:24.492Z,59.90
2019-04-22T20:34:03.110Z,58.60
2019-04-22T20:36:53.841Z,57.90
2019-04-22T20:39:02.210Z,57.80
2019-04-22T20:41:34.167Z,58.10
2019-04-22T20:44:19.555Z,59.70
2019-04-22T20:46:40.788Z,59.10
2019-04-22T20:49:22.303Z,61.00
2019-04-22T20:51:59.042Z,60.20
2019-04-22T20:54:22.797Z,61.30
2019-04-22T20:56:49.694Z,62.20
2019-04-22T20:59:23.975Z,62.20
2019-04-22T21:01:58.110Z,62.80
2019-04-22T21:04:24.773Z,63.40
2019-04-22T21:07:02.149Z,63.40
2019-04-22T21:12:13.764Z,66.90
2019-04-22T21:15:03.563Z,63.30
2019-04-22T21:17:24.148Z,64.50
2019-04-22T21:20:10.004Z,62.90
2019-04-22T21:22:33.911Z,62.70
2019-04-22T21:25:02.381Z,59.40
2019-04-22T21:27:45.541Z,59.90
2019-04-22T21:30:03.278Z,61.70
2019-04-22T21:32:38.906Z,63.30
2019-04-22T21:35:31.377Z,62.80
2019-04-22T21:37:57.115Z,62.70
2019-04-22T21:40:24.100Z,62.60
2019-04-22T21:43:01.041Z,63.70
2019-04-22T21:45:22.764Z,64.90
2019-04-22T21:48:04.888Z,66.30
2019-04-22T21:50:43.079Z,66.40
2019-04-22T21:53:08.579Z,67.10
2019-04-22T21:55:43.679Z,68.50
2019-04-22T21:58:38.590Z,69.00
2019-04-22T22:01:41.168Z,68.90
2019-04-22T22:04:12.766Z,69.90
2019-04-22T22:06:37.323Z,70.60
2019-04-22T22:09:15.651Z,70.30
2019-04-22T22:11:51.076Z,71.10
2019-04-22T22:14:24.513Z,70.90
2019-04-22T22:16:50.656Z,71.30
2019-04-22T22:19:28.481Z,71.10
2019-04-22T22:22:05.956Z,71.80
2019-04-22T22:24:41.706Z,73.70
2019-04-22T22:27:12.622Z,74.30
2019-04-22T22:29:50.325Z,75.10
2019-04-22T22:32:16.597Z,75.20
2019-04-22T22:34:45.887Z,74.00
2019-04-22T22:37:09.801Z,73.30
2019-04-22T22:39:42.818Z,72.30
2019-04-22T22:42:10.905Z,72.60
2019-04-22T22:44:44.874Z,72.90
2019-04-22T22:47:30.278Z,74.90
2019-04-22T22:50:03.294Z,77.30
2019-04-22T22:52:55.549Z,78.30
2019-04-22T22:55:10.800Z,80.20
2019-04-22T22:57:46.124Z,80.50
2019-04-22T23:00:15.849Z,80.70
2019-04-22T23:03:00.741Z,80.70
2019-04-22T23:05:26.254Z,80.10
2019-04-22T23:08:16.651Z,78.00
2019-04-22T23:10:34.244Z,78.90
2019-04-22T23:13:06.891Z,82.80
2019-04-22T23:15:27.625Z,83.80
2019-04-22T23:17:47.828Z,82.80
2019-04-22T23:20:28.992Z,83.90
2019-04-22T23:23:13.735Z,84.80
2019-04-22T23:25:53.241Z,84.30
2019-04-22T23:28:29.812Z,85.60
2019-04-22T23:31:30.576Z,86.50
2019-04-22T23:34:09.217Z,86.30
2019-04-22T23:37:07.338Z,85.90
2019-04-22T23:39:41.977Z,84.80
2019-04-22T23:42:18.978Z,82.70
2019-04-22T23:44:49.748Z,83.20
2019-04-22T23:47:14.691Z,85.50
2019-04-22T23:49:56.402Z,86.40
2019-04-22T23:52:29.060Z,88.20
2019-04-22T23:55:11.623Z,87.70
2019-04-22T23:57:42.159Z,86.80
